createdAt,value
2019-01-14T00:02:24.734Z,47.88
2019-01-14T00:04:55.458Z,46.37
2019-01-14T00:07:19.161Z,42.45
2019-01-14T00:09:45.217Z,42.95
2019-01-14T00:12:11.311Z,36.15
2019-01-14T00:14:37.339Z,42.60
2019-01-14T00:17:03.484Z,47.60
2019-01-14T00:19:29.631Z,38.27
2019-01-14T00:21:55.687Z,54.05
2019-01-14T00:24:21.766Z,51.37
2019-01-14T00:26:47.784Z,43.17
2019-01-14T00:29:13.873Z,47.70
2019-01-14T00:31:39.907Z,40.58
2019-01-14T00:34:05.953Z,48.00
2019-01-14T00:36:32.509Z,40.63
2019-01-14T00:38:58.553Z,42.25
2019-01-14T00:41:24.594Z,46.23
2019-01-14T00:43:50.652Z,41.33
2019-01-14T00:46:16.725Z,45.03
2019-01-14T00:48:42.866Z,43.73
2019-01-14T00:51:08.931Z,37.67
2019-01-14T00:53:34.960Z,44.75
2019-01-14T00:56:01.116Z,44.15
2019-01-14T00:58:27.213Z,46.37
2019-01-14T01:00:53.252Z,41.15
2019-01-14T01:03:19.401Z,38.00
2019-01-14T01:05:45.544Z,51.35
2019-01-14T01:08:11.574Z,48.77
2019-01-14T01:10:37.973Z,41.60
2019-01-14T01:13:04.533Z,49.65
2019-01-14T01:15:31.465Z,42.13
2019-01-14T01:17:57.693Z,38.75
2019-01-14T01:20:24.380Z,37.08
2019-01-14T01:22:50.566Z,36.48
2019-01-14T01:25:16.860Z,39.55
2019-01-14T01:27:43.318Z,46.35
2019-01-14T01:30:14.347Z,35.85
2019-01-14T01:32:40.674Z,35.33
2019-01-14T01:35:09.285Z,34.27
2019-01-14T01:37:35.673Z,35.40
2019-01-14T01:40:04.748Z,38.28
2019-01-14T01:42:31.419Z,32.42
2019-01-14T01:44:57.632Z,37.40
2019-01-14T01:47:23.711Z,31.30
2019-01-14T01:49:50.592Z,30.60
2019-01-14T01:52:16.794Z,34.63
2019-01-14T01:54:43.118Z,39.40
2019-01-14T01:57:09.637Z,32.70
2019-01-14T01:59:35.786Z,37.10
2019-01-14T02:02:02.010Z,35.45
2019-01-14T02:04:28.093Z,37.70
2019-01-14T02:06:54.195Z,29.82
2019-01-14T02:09:21.432Z,40.30
2019-01-14T02:11:47.736Z,35.40
2019-01-14T02:14:14.455Z,30.00
2019-01-14T02:16:41.022Z,32.40
2019-01-14T02:19:07.333Z,29.85
2019-01-14T02:21:33.470Z,28.73
2019-01-14T02:23:59.778Z,25.37
2019-01-14T02:26:26.073Z,33.35
2019-01-14T02:28:52.333Z,29.30
2019-01-14T02:31:18.623Z,28.20
2019-01-14T02:33:44.962Z,31.73
2019-01-14T02:36:11.032Z,31.57
2019-01-14T02:38:37.242Z,30.00
2019-01-14T02:41:03.404Z,22.98
2019-01-14T02:43:29.651Z,26.77
2019-01-14T02:45:55.929Z,34.48
2019-01-14T02:48:22.378Z,29.77
2019-01-14T02:50:48.571Z,34.05
2019-01-14T02:53:14.802Z,28.90
2019-01-14T02:55:41.022Z,24.70
2019-01-14T02:58:07.102Z,33.00
2019-01-14T03:00:33.361Z,31.52
2019-01-14T03:02:59.474Z,30.43
2019-01-14T03:05:26.617Z,30.92
2019-01-14T03:07:52.831Z,25.35
2019-01-14T03:10:18.993Z,30.17
2019-01-14T03:12:45.177Z,28.73
2019-01-14T03:15:14.331Z,28.85
2019-01-14T03:17:40.468Z,28.15
2019-01-14T03:20:09.569Z,28.83
2019-01-14T03:22:36.072Z,30.77
2019-01-14T03:25:03.690Z,24.80
2019-01-14T03:27:29.996Z,27.07
2019-01-14T03:29:57.556Z,30.40
2019-01-14T03:32:23.675Z,29.52
2019-01-14T03:34:50.431Z,29.32
2019-01-14T03:37:16.722Z,30.57
2019-01-14T03:39:42.857Z,23.95
2019-01-14T03:42:09.292Z,29.18
2019-01-14T03:44:35.762Z,19.35
2019-01-14T03:47:02.430Z,20.45
2019-01-14T03:49:28.618Z,18.25
2019-01-14T03:51:54.776Z,20.27
2019-01-14T03:54:21.052Z,18.57
2019-01-14T03:56:47.395Z,22.02
2019-01-14T03:59:13.539Z,12.23
2019-01-14T04:01:39.763Z,15.13
2019-01-14T04:04:05.826Z,16.80
2019-01-14T04:06:31.913Z,20.37
2019-01-14T04:08:58.034Z,20.25
2019-01-14T04:11:24.147Z,20.02
2019-01-14T04:13:50.435Z,25.37
2019-01-14T04:16:16.657Z,24.87
2019-01-14T04:18:42.706Z,23.75
2019-01-14T04:21:08.954Z,19.48
2019-01-14T04:23:35.436Z,21.77
2019-01-14T04:26:01.621Z,21.05
2019-01-14T04:28:27.804Z,19.85
2019-01-14T04:30:53.989Z,16.75
2019-01-14T04:33:20.103Z,15.63
2019-01-14T04:35:46.351Z,20.68
2019-01-14T04:38:12.698Z,17.85
2019-01-14T04:40:39.094Z,21.12
2019-01-14T04:43:05.945Z,15.35
2019-01-14T04:45:32.162Z,22.27
2019-01-14T04:47:58.331Z,16.97
2019-01-14T04:50:24.568Z,17.37
2019-01-14T04:52:50.835Z,18.10
2019-01-14T04:55:17.093Z,13.68
2019-01-14T04:57:44.653Z,18.25
2019-01-14T05:00:19.943Z,19.85
2019-01-14T05:02:46.164Z,16.77
2019-01-14T05:05:12.465Z,13.15
2019-01-14T05:07:39.137Z,19.35
2019-01-14T05:10:14.588Z,16.67
2019-01-14T05:12:41.942Z,24.47
2019-01-14T05:15:10.257Z,18.12
2019-01-14T05:17:37.689Z,20.80
2019-01-14T05:20:11.681Z,20.88
2019-01-14T05:22:38.845Z,20.40
2019-01-14T05:25:06.785Z,17.50
2019-01-14T05:27:34.068Z,22.10
2019-01-14T05:30:00.261Z,31.00
2019-01-14T05:32:26.628Z,24.70
2019-01-14T05:34:53.246Z,28.17
2019-01-14T05:37:19.624Z,24.20
2019-01-14T05:39:45.845Z,19.95
2019-01-14T05:42:12.509Z,21.07
2019-01-14T05:44:38.672Z,16.40
2019-01-14T05:47:05.047Z,22.67
2019-01-14T05:49:31.406Z,30.90
2019-01-14T05:51:57.812Z,24.47
2019-01-14T05:54:23.875Z,23.73
2019-01-14T05:56:50.005Z,25.27
2019-01-14T05:59:16.168Z,20.10
2019-01-14T06:01:42.480Z,23.10
2019-01-14T06:04:08.888Z,28.55
2019-01-14T06:06:35.113Z,27.55
2019-01-14T06:09:01.356Z,27.42
2019-01-14T06:11:29.066Z,32.05
2019-01-14T06:13:55.192Z,25.60
2019-01-14T06:16:21.553Z,27.30
2019-01-14T06:18:47.830Z,23.38
2019-01-14T06:21:14.016Z,21.62
2019-01-14T06:23:40.090Z,26.10
2019-01-14T06:26:06.313Z,32.98
2019-01-14T06:28:32.424Z,23.45
2019-01-14T06:30:58.701Z,26.82
2019-01-14T06:33:27.883Z,28.35
2019-01-14T06:35:54.147Z,28.98
2019-01-14T06:38:20.385Z,23.80
2019-01-14T06:40:46.512Z,24.05
2019-01-14T06:43:12.700Z,26.20
2019-01-14T06:45:38.773Z,24.20
2019-01-14T06:48:06.754Z,27.70
2019-01-14T06:50:32.813Z,26.25
2019-01-14T06:52:59.099Z,24.60
2019-01-14T06:55:26.645Z,22.37
2019-01-14T06:57:52.784Z,40.73
2019-01-14T07:00:21.835Z,24.63
2019-01-14T07:02:48.056Z,33.05
2019-01-14T07:05:14.438Z,23.95
2019-01-14T07:07:42.227Z,26.57
2019-01-14T07:10:12.338Z,21.07
2019-01-14T07:12:38.522Z,28.87
2019-01-14T07:15:07.226Z,24.87
2019-01-14T07:17:53.149Z,23.30
2019-01-14T07:20:20.010Z,22.70
2019-01-14T07:22:46.271Z,20.27
2019-01-14T07:25:12.369Z,23.37
2019-01-14T07:27:38.546Z,21.60
2019-01-14T07:30:11.570Z,24.63
2019-01-14T07:32:37.695Z,22.45
2019-01-14T07:35:05.180Z,20.43
2019-01-14T07:37:31.225Z,20.68
2019-01-14T07:39:57.260Z,17.95
2019-01-14T07:42:23.313Z,23.45
2019-01-14T07:44:49.362Z,19.92
2019-01-14T07:47:15.433Z,16.50
2019-01-14T07:49:41.482Z,15.85
2019-01-14T07:52:07.618Z,25.85
2019-01-14T07:54:33.840Z,22.25
2019-01-14T07:57:00.485Z,23.02
2019-01-14T07:59:26.522Z,17.82
2019-01-14T08:01:52.578Z,23.47
2019-01-14T08:04:18.648Z,20.00
2019-01-14T08:06:44.680Z,14.68
2019-01-14T08:09:11.693Z,19.45
2019-01-14T08:11:37.728Z,13.98
2019-01-14T08:14:04.000Z,15.38
2019-01-14T08:16:30.153Z,18.27
2019-01-14T08:18:56.215Z,13.95
2019-01-14T08:21:22.302Z,19.73
2019-01-14T08:23:48.394Z,19.17
2019-01-14T08:26:14.460Z,21.90
2019-01-14T08:28:40.717Z,17.87
2019-01-14T08:31:07.096Z,18.98
2019-01-14T08:33:33.138Z,17.50
2019-01-14T08:35:59.206Z,15.30
2019-01-14T08:38:25.292Z,21.82
2019-01-14T08:40:51.319Z,17.75
2019-01-14T08:43:17.403Z,18.67
2019-01-14T08:45:43.448Z,13.93
2019-01-14T08:48:09.481Z,16.67
2019-01-14T08:50:35.530Z,20.15
2019-01-14T08:53:01.585Z,16.07
2019-01-14T08:55:27.624Z,16.12
2019-01-14T08:57:54.765Z,17.42
2019-01-14T09:00:21.477Z,27.87
2019-01-14T09:02:47.516Z,16.90
2019-01-14T09:05:14.147Z,21.48
2019-01-14T09:07:40.194Z,22.87
2019-01-14T09:10:10.045Z,24.15
2019-01-14T09:12:36.076Z,17.45
2019-01-14T09:15:05.001Z,17.37
2019-01-14T09:17:31.059Z,20.27
2019-01-14T09:19:57.096Z,17.62
2019-01-14T09:22:23.126Z,14.93
2019-01-14T09:24:49.243Z,22.27
2019-01-14T09:27:15.272Z,18.10
2019-01-14T09:29:41.392Z,15.80
2019-01-14T09:32:07.998Z,19.42
2019-01-14T09:34:34.133Z,17.23
2019-01-14T09:37:01.209Z,17.50
2019-01-14T09:39:27.464Z,25.80
2019-01-14T09:41:53.509Z,20.88
2019-01-14T09:44:19.547Z,19.30
2019-01-14T09:46:45.920Z,17.37
2019-01-14T09:49:11.969Z,15.80
2019-01-14T09:51:38.028Z,24.23
2019-01-14T09:54:04.451Z,22.90
2019-01-14T09:56:30.488Z,20.32
2019-01-14T09:58:56.734Z,21.02
2019-01-14T10:01:22.766Z,19.55
2019-01-14T10:03:48.795Z,19.10
2019-01-14T10:06:15.132Z,22.32
2019-01-14T10:08:43.228Z,22.52
2019-01-14T10:11:09.573Z,20.10
2019-01-14T10:13:36.054Z,18.70
2019-01-14T10:16:02.299Z,27.30
2019-01-14T10:18:28.324Z,18.43
2019-01-14T10:20:54.502Z,19.70
2019-01-14T10:23:20.602Z,26.68
2019-01-14T10:25:46.724Z,23.70
2019-01-14T10:28:13.069Z,16.23
2019-01-14T10:30:39.128Z,21.33
2019-01-14T10:33:05.238Z,17.70
2019-01-14T10:35:31.313Z,17.12
2019-01-14T10:37:57.384Z,13.28
2019-01-14T10:40:23.501Z,16.80
2019-01-14T10:42:49.645Z,15.03
2019-01-14T10:45:18.319Z,13.68
2019-01-14T10:47:44.357Z,20.00
2019-01-14T10:50:11.225Z,20.20
2019-01-14T10:52:37.380Z,18.23
2019-01-14T10:55:12.231Z,16.90
2019-01-14T10:57:33.898Z,14.37
2019-01-14T10:59:59.924Z,17.57
2019-01-14T11:02:25.968Z,16.87
2019-01-14T11:04:52.135Z,14.30
2019-01-14T11:07:18.164Z,18.65
2019-01-14T11:09:44.691Z,17.67
2019-01-14T11:12:10.974Z,12.07
2019-01-14T11:14:37.827Z,12.23
2019-01-14T11:17:03.960Z,11.68
2019-01-14T11:19:30.131Z,17.60
2019-01-14T11:21:56.186Z,17.00
2019-01-14T11:24:26.111Z,16.87
2019-01-14T11:26:52.165Z,17.50
2019-01-14T11:29:18.197Z,9.88
2019-01-14T11:31:44.292Z,10.15
2019-01-14T11:34:10.384Z,12.40
2019-01-14T11:36:36.444Z,11.43
2019-01-14T11:39:06.333Z,10.23
2019-01-14T11:41:32.472Z,10.48
2019-01-14T11:43:58.829Z,13.90
2019-01-14T11:46:24.856Z,10.47
2019-01-14T11:48:50.914Z,10.00
2019-01-14T11:51:17.009Z,7.15
2019-01-14T11:53:43.053Z,7.60
2019-01-14T11:56:09.089Z,7.62
2019-01-14T11:58:35.127Z,5.03
2019-01-14T12:01:01.272Z,10.40
2019-01-14T12:03:27.313Z,9.83
2019-01-14T12:05:53.365Z,5.37
2019-01-14T12:08:21.010Z,11.48
2019-01-14T12:10:47.394Z,7.80
2019-01-14T12:13:13.421Z,12.93
2019-01-14T12:15:39.500Z,8.25
2019-01-14T12:18:05.785Z,9.95
2019-01-14T12:20:31.820Z,8.48
2019-01-14T12:22:57.959Z,8.58
2019-01-14T12:25:24.002Z,12.35
2019-01-14T12:27:50.068Z,9.33
2019-01-14T12:30:25.838Z,9.40
2019-01-14T12:32:51.973Z,13.50
2019-01-14T12:35:18.024Z,12.35
2019-01-14T12:37:44.099Z,11.67
2019-01-14T12:40:11.452Z,8.03
2019-01-14T12:42:37.491Z,11.00
2019-01-14T12:45:06.703Z,11.63
2019-01-14T12:47:32.775Z,10.53
2019-01-14T12:49:59.119Z,11.38
2019-01-14T12:52:25.197Z,9.50
2019-01-14T12:54:51.665Z,11.30
2019-01-14T12:57:17.979Z,11.10
2019-01-14T12:59:44.141Z,15.27
2019-01-14T13:02:10.165Z,10.25
2019-01-14T13:04:36.226Z,14.23
2019-01-14T13:07:02.250Z,13.70
2019-01-14T13:09:28.272Z,10.68
2019-01-14T13:11:54.349Z,13.75
2019-01-14T13:14:20.396Z,10.90
2019-01-14T13:16:46.424Z,15.93
2019-01-14T13:19:12.503Z,9.78
2019-01-14T13:21:38.948Z,14.53
2019-01-14T13:24:04.971Z,14.87
2019-01-14T13:26:31.036Z,11.73
2019-01-14T13:28:57.379Z,14.23
2019-01-14T13:31:23.523Z,15.00
2019-01-14T13:33:49.570Z,18.17
2019-01-14T13:36:15.606Z,11.00
2019-01-14T13:38:41.628Z,15.58
2019-01-14T13:41:07.728Z,12.30
2019-01-14T13:43:33.811Z,12.63
2019-01-14T13:45:59.840Z,11.15
2019-01-14T13:48:25.918Z,12.98
2019-01-14T13:50:52.238Z,9.53
2019-01-14T13:53:18.260Z,11.68
2019-01-14T13:55:44.655Z,16.65
2019-01-14T13:58:11.040Z,16.30
2019-01-14T14:00:37.077Z,11.90
2019-01-14T14:03:03.108Z,13.70
2019-01-14T14:05:29.147Z,21.12
2019-01-14T14:07:55.217Z,12.45
2019-01-14T14:10:24.258Z,13.83
2019-01-14T14:12:50.332Z,11.60
2019-01-14T14:15:17.474Z,14.65
2019-01-14T14:17:43.508Z,13.40
2019-01-14T14:20:12.245Z,18.67
2019-01-14T14:22:38.353Z,11.60
2019-01-14T14:25:06.901Z,18.87
2019-01-14T14:27:33.281Z,17.52
2019-01-14T14:29:59.321Z,21.77
2019-01-14T14:32:25.342Z,17.15
2019-01-14T14:34:51.399Z,14.60
2019-01-14T14:37:17.458Z,17.15
2019-01-14T14:39:48.540Z,19.73
2019-01-14T14:42:12.310Z,18.70
2019-01-14T14:44:38.408Z,17.87
2019-01-14T14:47:04.465Z,49.85
2019-01-14T14:49:30.548Z,32.35
2019-01-14T14:51:56.614Z,17.82
2019-01-14T14:54:22.660Z,15.70
2019-01-14T14:56:48.733Z,12.98
2019-01-14T14:59:14.764Z,13.48
2019-01-14T15:01:41.081Z,18.70
2019-01-14T15:04:07.138Z,15.40
2019-01-14T15:06:33.196Z,24.30
2019-01-14T15:08:59.228Z,19.00
2019-01-14T15:11:25.395Z,12.20
2019-01-14T15:13:51.541Z,15.68
2019-01-14T15:16:17.572Z,16.90
2019-01-14T15:18:43.659Z,13.80
2019-01-14T15:21:09.806Z,18.82
2019-01-14T15:23:35.888Z,15.28
2019-01-14T15:26:01.977Z,23.43
2019-01-14T15:28:28.133Z,21.07
2019-01-14T15:30:56.818Z,24.80
2019-01-14T15:33:22.998Z,24.15
2019-01-14T15:35:49.173Z,28.05
2019-01-14T15:38:15.287Z,19.32
2019-01-14T15:40:41.497Z,19.55
2019-01-14T15:43:07.554Z,20.88
2019-01-14T15:45:33.668Z,19.07
2019-01-14T15:47:59.744Z,26.20
2019-01-14T15:50:25.784Z,23.42
2019-01-14T15:52:51.969Z,19.10
2019-01-14T15:55:23.290Z,17.77
2019-01-14T15:57:49.344Z,17.07
2019-01-14T16:00:17.087Z,20.20
2019-01-14T16:02:43.132Z,20.50
2019-01-14T16:05:09.533Z,19.05
2019-01-14T16:07:35.675Z,19.12
2019-01-14T16:10:10.398Z,27.45
2019-01-14T16:12:31.784Z,17.98
2019-01-14T16:14:57.814Z,21.93
2019-01-14T16:17:23.840Z,21.42
2019-01-14T16:19:49.893Z,21.85
2019-01-14T16:22:15.943Z,17.23
2019-01-14T16:24:41.988Z,21.40
2019-01-14T16:27:08.133Z,26.50
2019-01-14T16:29:34.259Z,17.17
2019-01-14T16:32:00.440Z,23.83
2019-01-14T16:34:26.472Z,17.85
2019-01-14T16:36:52.582Z,22.85
2019-01-14T16:39:18.905Z,26.82
2019-01-14T16:41:44.945Z,24.10
2019-01-14T16:44:10.981Z,21.97
2019-01-14T16:46:37.332Z,17.85
2019-01-14T16:49:03.392Z,18.80
2019-01-14T16:51:29.425Z,22.10
2019-01-14T16:53:55.637Z,23.60
2019-01-14T16:56:21.679Z,24.40
2019-01-14T16:58:50.337Z,22.35
2019-01-14T17:01:16.401Z,15.63
2019-01-14T17:03:42.516Z,17.80
2019-01-14T17:06:08.622Z,25.80
2019-01-14T17:08:34.750Z,44.80
2019-01-14T17:11:00.812Z,19.57
2019-01-14T17:13:29.010Z,17.80
2019-01-14T17:15:55.077Z,18.35
2019-01-14T17:18:21.217Z,27.50
2019-01-14T17:20:47.249Z,20.62
2019-01-14T17:23:13.484Z,19.77
2019-01-14T17:25:39.522Z,20.97
2019-01-14T17:28:05.564Z,20.60
2019-01-14T17:30:31.628Z,17.90
2019-01-14T17:32:57.767Z,25.27
2019-01-14T17:35:23.972Z,23.32
2019-01-14T17:37:50.173Z,18.02
2019-01-14T17:40:18.336Z,21.87
2019-01-14T17:42:44.376Z,16.07
2019-01-14T17:45:10.802Z,19.20
2019-01-14T17:47:37.117Z,21.93
2019-01-14T17:50:09.620Z,20.70
2019-01-14T17:52:35.766Z,18.87
2019-01-14T17:55:01.869Z,17.73
2019-01-14T17:57:27.907Z,22.40
2019-01-14T17:59:53.932Z,24.10
2019-01-14T18:02:20.025Z,20.62
2019-01-14T18:04:46.104Z,25.50
2019-01-14T18:07:12.249Z,25.57
2019-01-14T18:09:38.538Z,24.05
2019-01-14T18:12:04.698Z,19.65
2019-01-14T18:14:30.760Z,26.02
2019-01-14T18:16:56.807Z,18.50
2019-01-14T18:19:22.829Z,22.05
2019-01-14T18:21:48.899Z,20.83
2019-01-14T18:24:14.940Z,22.82
2019-01-14T18:26:41.011Z,16.73
2019-01-14T18:29:07.091Z,25.30
2019-01-14T18:31:33.995Z,20.10
2019-01-14T18:34:01.462Z,13.25
2019-01-14T18:36:27.536Z,17.52
2019-01-14T18:38:53.746Z,17.48
2019-01-14T18:41:19.850Z,22.30
2019-01-14T18:43:46.007Z,18.20
2019-01-14T18:46:12.050Z,19.92
2019-01-14T18:48:38.153Z,16.70
2019-01-14T18:51:04.376Z,22.93
2019-01-14T18:53:30.446Z,22.02
2019-01-14T18:55:56.477Z,16.15
2019-01-14T18:58:22.834Z,20.32
2019-01-14T19:00:48.880Z,21.68
2019-01-14T19:03:14.969Z,17.60
2019-01-14T19:05:41.214Z,16.80
2019-01-14T19:09:41.078Z,21.07
2019-01-14T19:12:07.244Z,21.97
2019-01-14T19:14:33.386Z,20.10
2019-01-14T19:16:59.410Z,22.40
2019-01-14T19:19:25.506Z,19.80
2019-01-14T19:21:51.566Z,27.17
2019-01-14T19:24:18.094Z,27.30
2019-01-14T19:26:44.437Z,27.27
2019-01-14T19:29:10.490Z,25.77
2019-01-14T19:31:37.622Z,20.00
2019-01-14T19:34:03.777Z,16.55
2019-01-14T19:36:29.826Z,22.65
2019-01-14T19:38:55.884Z,18.85
2019-01-14T19:41:22.297Z,21.43
2019-01-14T19:43:48.441Z,20.80
2019-01-14T19:46:15.298Z,23.15
2019-01-14T19:48:41.365Z,13.85
2019-01-14T19:51:07.389Z,20.00
2019-01-14T19:53:33.643Z,14.25
2019-01-14T19:56:00.029Z,18.32
2019-01-14T19:58:26.085Z,13.75
2019-01-14T20:00:53.045Z,23.35
2019-01-14T20:03:23.853Z,14.97
2019-01-14T20:05:49.889Z,20.08
2019-01-14T20:08:17.850Z,22.10
2019-01-14T20:10:43.891Z,19.50
2019-01-14T20:13:09.974Z,22.35
2019-01-14T20:15:36.033Z,19.53
2019-01-14T20:18:02.503Z,23.27
2019-01-14T20:20:28.676Z,18.85
2019-01-14T20:22:55.537Z,18.62
2019-01-14T20:25:21.766Z,21.68
2019-01-14T20:27:47.933Z,21.17
2019-01-14T20:30:16.374Z,21.60
2019-01-14T20:32:42.968Z,19.80
2019-01-14T20:35:09.007Z,25.02
2019-01-14T20:37:35.068Z,19.82
2019-01-14T20:40:03.232Z,25.52
2019-01-14T20:42:29.259Z,25.90
2019-01-14T20:44:55.289Z,34.33
2019-01-14T20:47:21.712Z,27.80
2019-01-14T20:49:47.759Z,21.95
2019-01-14T20:52:13.849Z,20.97
2019-01-14T20:54:39.949Z,22.73
2019-01-14T20:57:06.099Z,21.83
2019-01-14T20:59:34.512Z,25.77
2019-01-14T21:02:00.278Z,26.05
2019-01-14T21:04:26.561Z,22.30
2019-01-14T21:06:52.695Z,29.67
2019-01-14T21:09:18.764Z,22.23
2019-01-14T21:11:44.815Z,26.95
2019-01-14T21:14:10.917Z,24.80
2019-01-14T21:16:36.945Z,28.77
2019-01-14T21:19:02.968Z,33.85
2019-01-14T21:21:29.202Z,23.07
2019-01-14T21:23:55.235Z,26.95
2019-01-14T21:26:21.617Z,21.73
2019-01-14T21:28:47.665Z,25.20
2019-01-14T21:31:13.720Z,23.65
2019-01-14T21:33:39.791Z,23.60
2019-01-14T21:36:05.858Z,34.60
2019-01-14T21:38:32.940Z,21.90
2019-01-14T21:40:59.001Z,29.32
2019-01-14T21:43:25.140Z,26.17
2019-01-14T21:45:51.170Z,25.75
2019-01-14T21:48:17.562Z,23.30
2019-01-14T21:50:43.770Z,21.27
2019-01-14T21:53:09.853Z,25.55
2019-01-14T21:55:35.907Z,23.20
2019-01-14T21:58:02.170Z,19.33
2019-01-14T22:00:28.502Z,21.30
2019-01-14T22:02:54.556Z,24.53
2019-01-14T22:05:20.613Z,23.38
2019-01-14T22:07:46.906Z,22.58
2019-01-14T22:10:24.185Z,21.62
2019-01-14T22:12:50.236Z,26.73
2019-01-14T22:15:16.265Z,21.77
2019-01-14T22:17:42.595Z,27.70
2019-01-14T22:20:12.128Z,22.22
2019-01-14T22:22:38.391Z,23.92
2019-01-14T22:25:06.543Z,21.95
2019-01-14T22:27:32.701Z,20.72
2019-01-14T22:29:58.737Z,26.57
2019-01-14T22:32:24.784Z,20.67
2019-01-14T22:34:50.909Z,22.85
2019-01-14T22:37:16.990Z,29.95
2019-01-14T22:39:43.077Z,27.27
2019-01-14T22:42:09.148Z,22.50
2019-01-14T22:44:35.211Z,29.05
2019-01-14T22:47:01.251Z,24.60
2019-01-14T22:49:27.306Z,23.03
2019-01-14T22:51:53.366Z,27.05
2019-01-14T22:54:19.673Z,26.57
2019-01-14T22:56:45.701Z,30.70
2019-01-14T22:59:11.740Z,28.40
2019-01-14T23:01:37.976Z,25.20
2019-01-14T23:04:04.049Z,22.15
2019-01-14T23:06:30.105Z,34.48
2019-01-14T23:08:56.148Z,21.77
2019-01-14T23:11:22.191Z,27.17
2019-01-14T23:13:48.224Z,23.55
2019-01-14T23:16:14.335Z,23.77
2019-01-14T23:18:40.461Z,30.23
2019-01-14T23:21:06.517Z,27.73
2019-01-14T23:23:32.604Z,26.40
2019-01-14T23:25:58.653Z,25.33
2019-01-14T23:28:24.716Z,26.17
2019-01-14T23:30:50.767Z,32.50
2019-01-14T23:33:17.811Z,23.90
2019-01-14T23:35:43.839Z,28.45
2019-01-14T23:38:09.871Z,26.15
2019-01-14T23:40:35.908Z,23.70
2019-01-14T23:43:02.349Z,29.12
2019-01-14T23:45:28.405Z,28.12
2019-01-14T23:47:54.456Z,23.90
2019-01-14T23:50:20.800Z,71.95
2019-01-14T23:52:46.864Z,24.45
2019-01-14T23:55:12.907Z,27.10
2019-01-14T23:57:38.957Z,23.85
